Time;durP1;ratioP1;P1;durP2;ratioP2;P2;SDS_P1;SDS_P2;PMS_P1;PMS_P2;Temp;Humidity;BMP_temperature;BMP_pressure;BME280_temperature;BME280_humidity;BME280_pressure;Samples;Min_cycle;Max_cycle;Signal;HPM_P1;HPM_P2
2023/01/19 00:01:43;;;;;;;39.03;18.77;;;;;;;;;;4971289;28;20051;-75
2023/01/19 00:04:09;;;;;;;41.42;18.73;;;;;;;;;;4972981;28;20037;-77
2023/01/19 00:06:35;;;;;;;36.17;20.10;;;;;;;;;;4974197;28;20104;-77
2023/01/19 00:09:01;;;;;;;42.47;19.77;;;;;;;;;;4976194;28;20386;-76
2023/01/19 00:11:27;;;;;;;41.60;19.17;;;;;;;;;;4975957;28;20018;-76
2023/01/19 00:13:53;;;;;;;37.22;20.33;;;;;;;;;;4975853;28;20034;-75
2023/01/19 00:16:21;;;;;;;36.63;20.00;;;;;;;;;;4976101;28;20031;-75
2023/01/19 00:18:49;;;;;;;33.40;19.20;;;;;;;;;;4975680;28;20034;-75
2023/01/19 00:21:15;;;;;;;35.67;18.92;;;;;;;;;;4975791;28;20030;-75
2023/01/19 00:23:42;;;;;;;39.70;19.10;;;;;;;;;;4975716;28;20038;-75
2023/01/19 00:26:09;;;;;;;41.08;19.95;;;;;;;;;;4975648;28;20027;-76
2023/01/19 00:28:35;;;;;;;45.22;20.40;;;;;;;;;;4975408;28;20039;-76
2023/01/19 00:31:01;;;;;;;38.42;18.50;;;;;;;;;;4976002;28;20035;-77
2023/01/19 00:33:27;;;;;;;36.70;20.08;;;;;;;;;;4975625;28;20497;-76
2023/01/19 00:35:53;;;;;;;41.65;19.73;;;;;;;;;;4975948;28;20035;-76
2023/01/19 00:38:19;;;;;;;41.78;20.27;;;;;;;;;;4975392;28;20045;-76
2023/01/19 00:40:46;;;;;;;35.38;19.23;;;;;;;;;;4975675;28;20401;-76
2023/01/19 00:43:12;;;;;;;38.28;19.65;;;;;;;;;;4975841;28;20078;-76
2023/01/19 00:45:38;;;;;;;35.25;18.23;;;;;;;;;;4975450;28;20030;-75
2023/01/19 00:48:04;;;;;;;37.20;19.55;;;;;;;;;;4975159;28;20029;-75
2023/01/19 00:50:30;;;;;;;37.80;18.65;;;;;;;;;;4974264;28;20122;-76
2023/01/19 00:52:59;;;;;;;34.80;18.77;;;;;;;;;;4975278;28;20038;-76
2023/01/19 00:55:26;;;;;;;35.30;18.77;;;;;;;;;;4973793;28;20085;-76
2023/01/19 00:57:52;;;;;;;32.78;18.48;;;;;;;;;;4974891;28;20035;-76
2023/01/19 01:00:18;;;;;;;33.80;18.15;;;;;;;;;;4974988;28;20035;-75
2023/01/19 01:02:45;;;;;;;37.53;17.98;;;;;;;;;;4974870;28;20319;-75
2023/01/19 01:05:11;;;;;;;35.13;18.33;;;;;;;;;;4975105;28;20035;-77
2023/01/19 01:07:43;;;;;;;35.75;18.95;;;;;;;;;;4974832;28;20034;-76
2023/01/19 01:10:17;;;;;;;39.22;19.23;;;;;;;;;;4975120;28;20046;-77
2023/01/19 01:12:43;;;;;;;39.25;19.20;;;;;;;;;;4975089;28;20038;-77
2023/01/19 01:15:10;;;;;;;36.08;18.30;;;;;;;;;;4975001;28;20022;-76
2023/01/19 01:17:36;;;;;;;36.22;18.02;;;;;;;;;;4973836;28;20054;-77
2023/01/19 01:20:03;;;;;;;35.33;18.45;;;;;;;;;;4974879;28;20027;-75
2023/01/19 01:22:30;;;;;;;35.88;17.90;;;;;;;;;;4975020;28;20041;-77
2023/01/19 01:24:56;;;;;;;38.17;19.08;;;;;;;;;;4974533;28;20035;-78
2023/01/19 01:27:22;;;;;;;35.75;18.50;;;;;;;;;;4974228;28;20058;-78
2023/01/19 01:29:48;;;;;;;35.47;17.92;;;;;;;;;;4974402;28;20482;-75
2023/01/19 01:32:14;;;;;;;34.63;16.15;;;;;;;;;;4974809;28;20101;-77
2023/01/19 01:34:40;;;;;;;34.95;17.15;;;;;;;;;;4974704;28;20026;-77
2023/01/19 01:37:07;;;;;;;37.13;17.58;;;;;;;;;;4974361;28;20025;-74
2023/01/19 01:39:36;;;;;;;29.38;15.95;;;;;;;;;;4974535;28;20015;-77
2023/01/19 01:42:03;;;;;;;35.22;17.48;;;;;;;;;;4974428;28;20030;-76
2023/01/19 01:44:49;;;;;;;36.97;16.23;;;;;;;;;;4974210;28;20074;-76
2023/01/19 01:47:23;;;;;;;30.63;15.82;;;;;;;;;;4959146;28;20074;-76
2023/01/19 01:49:54;;;;;;;33.00;16.35;;;;;;;;;;4973158;28;20031;-76
2023/01/19 01:52:21;;;;;;;27.55;14.55;;;;;;;;;;4973028;28;20110;-76
2023/01/19 01:54:47;;;;;;;24.27;14.65;;;;;;;;;;4973976;28;20482;-76
2023/01/19 01:57:13;;;;;;;26.92;14.15;;;;;;;;;;4976052;28;20029;-76
2023/01/19 01:59:44;;;;;;;27.42;14.27;;;;;;;;;;4982299;28;20019;-77
2023/01/19 02:05:04;;;;;;;27.58;13.57;;;;;;;;;;4986040;28;20078;-76
2023/01/19 02:13:17;;;;;;;27.65;13.88;;;;;;;;;;4974037;28;20081;-76
2023/01/19 02:15:43;;;;;;;32.17;15.80;;;;;;;;;;4973782;28;20038;-75
2023/01/19 02:18:09;;;;;;;26.77;14.25;;;;;;;;;;4973688;28;20031;-76
2023/01/19 02:20:36;;;;;;;30.30;14.23;;;;;;;;;;4973794;28;20035;-76
2023/01/19 02:23:04;;;;;;;25.60;14.93;;;;;;;;;;4973809;28;20069;-76
2023/01/19 02:25:31;;;;;;;28.40;15.23;;;;;;;;;;4973260;28;20027;-76
2023/01/19 02:27:57;;;;;;;24.63;13.63;;;;;;;;;;4971947;28;20473;-76
2023/01/19 02:30:23;;;;;;;30.63;14.10;;;;;;;;;;4972827;28;20162;-78
2023/01/19 02:32:49;;;;;;;27.38;14.10;;;;;;;;;;4973505;28;20077;-76
2023/01/19 02:35:15;;;;;;;25.98;13.30;;;;;;;;;;4973271;28;20031;-75
2023/01/19 02:37:43;;;;;;;30.58;14.25;;;;;;;;;;4973341;28;20033;-78
2023/01/19 02:40:14;;;;;;;36.28;15.38;;;;;;;;;;4974009;28;20114;-76
2023/01/19 02:42:49;;;;;;;32.97;15.25;;;;;;;;;;4974359;28;20031;-76
2023/01/19 02:45:17;;;;;;;28.27;14.18;;;;;;;;;;4958481;28;20405;-77
2023/01/19 02:47:45;;;;;;;32.03;15.32;;;;;;;;;;4971703;28;20393;-75
2023/01/19 02:50:29;;;;;;;30.45;15.40;;;;;;;;;;4973193;28;20033;-77
2023/01/19 02:52:58;;;;;;;30.08;15.60;;;;;;;;;;4973183;28;20042;-77
2023/01/19 02:55:26;;;;;;;30.83;14.43;;;;;;;;;;5001919;23;20041;-74
2023/01/19 02:57:58;;;;;;;29.85;15.80;;;;;;;;;;5000881;28;20034;-74
2023/01/19 03:00:39;;;;;;;25.45;14.73;;;;;;;;;;4996642;28;20022;-74
2023/01/19 03:03:13;;;;;;;29.55;15.18;;;;;;;;;;5009470;28;20033;-75
2023/01/19 03:05:48;;;;;;;30.40;16.70;;;;;;;;;;5000022;28;20423;-76
2023/01/19 03:08:21;;;;;;;24.30;14.23;;;;;;;;;;5006465;28;20087;-75
2023/01/19 03:10:50;;;;;;;28.08;15.18;;;;;;;;;;4994804;28;20475;-76
2023/01/19 03:13:35;;;;;;;28.45;13.73;;;;;;;;;;5007071;28;20026;-75
2023/01/19 03:16:10;;;;;;;25.70;13.57;;;;;;;;;;5002520;28;20030;-74
2023/01/19 03:18:38;;;;;;;27.98;13.18;;;;;;;;;;4994565;28;20034;-74
2023/01/19 03:21:06;;;;;;;23.92;12.00;;;;;;;;;;5006902;28;20066;-75
2023/01/19 03:23:34;;;;;;;23.02;11.70;;;;;;;;;;4998705;28;20446;-75
2023/01/19 03:26:00;;;;;;;24.92;10.73;;;;;;;;;;5000900;28;20162;-75
2023/01/19 03:28:29;;;;;;;18.27;10.02;;;;;;;;;;5005764;28;20370;-75
2023/01/19 03:31:05;;;;;;;21.42;10.75;;;;;;;;;;4995251;28;20062;-75
2023/01/19 03:33:32;;;;;;;22.45;11.45;;;;;;;;;;5003430;28;20104;-75
2023/01/19 03:36:02;;;;;;;20.17;10.60;;;;;;;;;;5002065;28;20041;-75
2023/01/19 03:38:31;;;;;;;20.40;10.20;;;;;;;;;;4996862;28;20027;-75
2023/01/19 03:40:59;;;;;;;24.17;11.88;;;;;;;;;;5008737;28;20029;-75
2023/01/19 03:43:26;;;;;;;24.13;9.82;;;;;;;;;;5001620;28;20022;-75
2023/01/19 03:45:52;;;;;;;19.55;10.48;;;;;;;;;;5005913;28;20035;-75
2023/01/19 03:48:20;;;;;;;19.05;10.18;;;;;;;;;;5009088;28;20032;-75
2023/01/19 03:50:46;;;;;;;17.30;9.00;;;;;;;;;;5000732;28;20033;-74
2023/01/19 03:53:13;;;;;;;16.42;8.45;;;;;;;;;;5011249;28;20048;-74
2023/01/19 03:55:41;;;;;;;16.00;7.93;;;;;;;;;;5003189;28;20060;-75
2023/01/19 03:58:07;;;;;;;14.35;8.07;;;;;;;;;;5002365;28;20038;-75
2023/01/19 04:00:33;;;;;;;13.52;8.10;;;;;;;;;;5010757;28;20026;-76
2023/01/19 04:02:59;;;;;;;16.02;7.05;;;;;;;;;;4998790;28;20034;-76
2023/01/19 04:05:25;;;;;;;17.33;7.40;;;;;;;;;;5009122;28;20026;-76
2023/01/19 04:07:52;;;;;;;15.60;7.25;;;;;;;;;;4995135;28;20026;-76
2023/01/19 04:10:18;;;;;;;10.93;7.03;;;;;;;;;;5008153;28;20034;-74
2023/01/19 04:12:45;;;;;;;13.70;7.13;;;;;;;;;;4997360;28;20038;-75
2023/01/19 04:15:11;;;;;;;14.95;7.40;;;;;;;;;;5011083;28;20101;-75
2023/01/19 04:17:38;;;;;;;11.98;6.65;;;;;;;;;;5002709;28;20022;-76
2023/01/19 04:20:04;;;;;;;12.82;6.55;;;;;;;;;;5002787;28;20416;-75
2023/01/19 04:22:31;;;;;;;13.20;7.30;;;;;;;;;;5009622;28;20034;-74
2023/01/19 04:24:57;;;;;;;10.02;5.93;;;;;;;;;;4998046;28;20487;-75
2023/01/19 04:27:23;;;;;;;11.35;5.90;;;;;;;;;;5009004;28;20105;-75
2023/01/19 04:29:49;;;;;;;14.23;6.07;;;;;;;;;;5002645;28;20512;-76
2023/01/19 04:32:15;;;;;;;16.70;7.18;;;;;;;;;;5002469;28;20018;-76
2023/01/19 04:34:42;;;;;;;14.45;6.72;;;;;;;;;;5000295;28;20022;-75
2023/01/19 04:37:08;;;;;;;16.98;7.60;;;;;;;;;;4987355;28;20080;-74
2023/01/19 04:39:34;;;;;;;13.07;6.80;;;;;;;;;;5001674;28;20018;-75
2023/01/19 04:42:00;;;;;;;12.57;7.05;;;;;;;;;;5002403;28;20477;-75
2023/01/19 04:44:27;;;;;;;14.45;7.13;;;;;;;;;;5009270;28;20033;-75
2023/01/19 04:46:53;;;;;;;12.20;6.70;;;;;;;;;;4999082;28;20741;-75
2023/01/19 04:49:19;;;;;;;15.95;7.50;;;;;;;;;;5009340;28;20069;-75
2023/01/19 04:51:45;;;;;;;15.63;7.20;;;;;;;;;;5004507;28;20033;-77
2023/01/19 04:54:11;;;;;;;11.13;6.45;;;;;;;;;;5005708;28;20034;-76
2023/01/19 04:56:39;;;;;;;13.70;6.10;;;;;;;;;;5012715;28;20041;-75
2023/01/19 04:59:05;;;;;;;10.55;5.90;;;;;;;;;;4999458;28;20025;-76
2023/01/19 05:01:31;;;;;;;11.63;6.00;;;;;;;;;;5009345;28;20034;-76
2023/01/19 05:04:02;;;;;;;11.13;6.03;;;;;;;;;;5005041;28;20030;-75
2023/01/19 05:06:28;;;;;;;8.70;5.65;;;;;;;;;;4998543;28;20031;-76
2023/01/19 05:08:54;;;;;;;12.48;5.43;;;;;;;;;;5009003;28;20033;-75
2023/01/19 05:11:20;;;;;;;9.30;4.75;;;;;;;;;;4999432;28;20456;-75
2023/01/19 05:13:46;;;;;;;13.68;6.47;;;;;;;;;;5005157;28;20054;-76
2023/01/19 05:16:12;;;;;;;9.00;4.53;;;;;;;;;;5006446;28;20041;-75
2023/01/19 05:18:39;;;;;;;8.52;5.32;;;;;;;;;;4996576;28;20054;-76
2023/01/19 05:21:06;;;;;;;10.43;5.30;;;;;;;;;;5010118;28;20049;-76
2023/01/19 05:23:32;;;;;;;9.27;5.78;;;;;;;;;;5001294;28;20057;-76
2023/01/19 05:25:59;;;;;;;9.70;4.95;;;;;;;;;;5004514;28;20073;-75
2023/01/19 05:28:27;;;;;;;7.70;4.47;;;;;;;;;;5008035;28;20033;-77
2023/01/19 05:30:53;;;;;;;9.32;5.15;;;;;;;;;;4997237;28;20049;-77
2023/01/19 05:33:20;;;;;;;8.32;4.55;;;;;;;;;;5008554;28;20026;-75
2023/01/19 05:35:46;;;;;;;7.95;4.80;;;;;;;;;;5002069;28;20308;-76
2023/01/19 05:38:12;;;;;;;12.50;5.72;;;;;;;;;;5000941;28;20149;-76
2023/01/19 05:40:38;;;;;;;8.57;5.00;;;;;;;;;;5009482;28;20096;-76
2023/01/19 05:43:04;;;;;;;10.55;5.85;;;;;;;;;;4997115;28;20340;-76
2023/01/19 05:45:30;;;;;;;8.07;4.45;;;;;;;;;;5005368;28;20542;-76
2023/01/19 05:47:56;;;;;;;9.85;4.90;;;;;;;;;;5003703;28;20026;-76
2023/01/19 05:50:22;;;;;;;8.73;4.72;;;;;;;;;;4999711;28;20094;-76
2023/01/19 05:52:48;;;;;;;7.70;4.35;;;;;;;;;;5009195;28;20032;-76
2023/01/19 05:55:15;;;;;;;8.90;4.75;;;;;;;;;;4999741;28;20026;-75
2023/01/19 05:57:42;;;;;;;7.60;4.20;;;;;;;;;;5007048;28;20022;-76
2023/01/19 06:00:08;;;;;;;7.22;4.30;;;;;;;;;;5007698;28;20392;-76
2023/01/19 06:02:34;;;;;;;8.52;4.15;;;;;;;;;;4999709;28;20113;-76
2023/01/19 06:05:00;;;;;;;7.72;3.83;;;;;;;;;;5012228;28;20372;-77
2023/01/19 06:07:26;;;;;;;7.20;4.05;;;;;;;;;;5004727;28;20018;-77
2023/01/19 06:09:52;;;;;;;6.80;4.03;;;;;;;;;;5009397;28;20030;-75
2023/01/19 06:12:18;;;;;;;7.88;4.28;;;;;;;;;;5012788;28;20064;-76
2023/01/19 06:14:44;;;;;;;8.35;4.70;;;;;;;;;;5004284;28;20070;-75
2023/01/19 06:17:10;;;;;;;11.57;4.57;;;;;;;;;;5015597;28;20030;-77
2023/01/19 06:19:36;;;;;;;6.80;4.43;;;;;;;;;;5009800;28;20483;-74
2023/01/19 06:22:02;;;;;;;12.77;6.68;;;;;;;;;;5013100;28;20025;-76
2023/01/19 06:24:28;;;;;;;14.77;8.02;;;;;;;;;;5010347;28;20030;-77
2023/01/19 06:26:54;;;;;;;18.55;6.85;;;;;;;;;;5006446;28;20041;-75
2023/01/19 06:29:21;;;;;;;17.02;8.20;;;;;;;;;;5017062;28;20026;-76
2023/01/19 06:31:47;;;;;;;12.88;7.32;;;;;;;;;;5009179;28;20049;-76
2023/01/19 06:34:13;;;;;;;15.25;7.63;;;;;;;;;;5004964;28;20034;-76
2023/01/19 06:36:39;;;;;;;13.07;8.07;;;;;;;;;;5014560;28;20129;-76
2023/01/19 06:39:05;;;;;;;21.13;10.32;;;;;;;;;;5000464;28;20057;-76
2023/01/19 06:41:34;;;;;;;12.95;6.90;;;;;;;;;;5008880;28;20026;-75
2023/01/19 06:44:01;;;;;;;12.98;6.43;;;;;;;;;;5005163;28;20135;-76
2023/01/19 06:46:27;;;;;;;13.15;5.68;;;;;;;;;;4999176;28;20350;-76
2023/01/19 06:48:53;;;;;;;10.82;4.97;;;;;;;;;;5009426;28;20029;-76
2023/01/19 06:51:19;;;;;;;12.13;4.90;;;;;;;;;;4997794;28;20072;-76
2023/01/19 06:53:45;;;;;;;6.90;4.30;;;;;;;;;;5002366;28;20058;-76
2023/01/19 06:56:12;;;;;;;9.40;5.75;;;;;;;;;;5004715;28;20042;-77
2023/01/19 06:58:38;;;;;;;8.45;5.20;;;;;;;;;;4996343;28;20459;-76
2023/01/19 07:01:05;;;;;;;14.18;7.15;;;;;;;;;;5007222;28;20382;-77
2023/01/19 07:03:31;;;;;;;14.38;8.18;;;;;;;;;;4999013;28;20113;-76
2023/01/19 07:06:01;;;;;;;16.63;7.10;;;;;;;;;;5001768;28;20022;-76
2023/01/19 07:08:27;;;;;;;13.95;6.68;;;;;;;;;;5006373;28;20026;-77
2023/01/19 07:10:53;;;;;;;15.25;8.15;;;;;;;;;;4998109;28;20106;-77
2023/01/19 07:13:20;;;;;;;14.38;8.20;;;;;;;;;;5008848;28;20038;-76
2023/01/19 07:15:46;;;;;;;17.27;8.82;;;;;;;;;;4999379;28;20030;-77
2023/01/19 07:18:12;;;;;;;15.05;7.90;;;;;;;;;;4999956;28;20042;-76
2023/01/19 07:20:38;;;;;;;13.57;7.40;;;;;;;;;;5008156;28;20041;-76
2023/01/19 07:23:04;;;;;;;14.38;8.40;;;;;;;;;;4995513;28;20101;-76
2023/01/19 07:25:30;;;;;;;16.83;8.23;;;;;;;;;;5005046;28;20052;-77
2023/01/19 07:27:57;;;;;;;14.63;7.43;;;;;;;;;;5001859;28;20077;-77
2023/01/19 07:30:23;;;;;;;13.32;7.70;;;;;;;;;;4996487;28;20404;-77
2023/01/19 07:32:49;;;;;;;12.98;7.45;;;;;;;;;;5008087;28;20373;-76
2023/01/19 07:35:15;;;;;;;17.15;8.35;;;;;;;;;;4997040;28;20122;-77
2023/01/19 07:37:41;;;;;;;15.82;8.38;;;;;;;;;;5003711;28;20037;-77
2023/01/19 07:40:08;;;;;;;14.95;7.88;;;;;;;;;;5004243;28;20034;-77
2023/01/19 07:42:34;;;;;;;15.90;8.38;;;;;;;;;;4997129;28;20030;-77
2023/01/19 07:45:00;;;;;;;13.27;7.68;;;;;;;;;;5007785;28;20104;-76
2023/01/19 07:47:26;;;;;;;15.30;8.20;;;;;;;;;;4995792;28;20480;-76
2023/01/19 07:49:52;;;;;;;17.58;8.05;;;;;;;;;;5002044;28;20034;-76
2023/01/19 07:52:18;;;;;;;16.50;8.55;;;;;;;;;;5004387;28;20491;-76
2023/01/19 07:54:44;;;;;;;16.15;8.90;;;;;;;;;;4995026;28;20057;-78
2023/01/19 07:57:10;;;;;;;17.60;9.45;;;;;;;;;;5006988;28;20370;-76
2023/01/19 07:59:37;;;;;;;15.35;7.78;;;;;;;;;;4997394;28;20034;-76
2023/01/19 08:02:03;;;;;;;14.13;7.68;;;;;;;;;;4999201;28;20033;-77
2023/01/19 08:04:29;;;;;;;14.88;8.48;;;;;;;;;;5005793;28;20517;-76
2023/01/19 08:06:56;;;;;;;14.20;7.70;;;;;;;;;;4994797;28;20065;-77
2023/01/19 08:09:23;;;;;;;15.82;8.13;;;;;;;;;;5005648;28;20022;-75
2023/01/19 08:11:49;;;;;;;12.93;7.90;;;;;;;;;;4999032;28;20703;-75
2023/01/19 08:14:15;;;;;;;18.77;9.80;;;;;;;;;;4997227;28;20037;-76
2023/01/19 08:16:41;;;;;;;12.93;6.75;;;;;;;;;;5005810;28;20065;-75
2023/01/19 08:19:07;;;;;;;17.33;8.57;;;;;;;;;;4994370;28;20030;-76
2023/01/19 08:21:37;;;;;;;12.35;7.68;;;;;;;;;;5004201;28;20026;-76
2023/01/19 08:24:04;;;;;;;13.27;6.85;;;;;;;;;;5002273;28;20116;-75
2023/01/19 08:26:31;;;;;;;16.55;6.65;;;;;;;;;;4996226;28;20061;-77
2023/01/19 08:28:58;;;;;;;16.13;7.25;;;;;;;;;;5011685;28;20033;-77
2023/01/19 08:31:25;;;;;;;13.85;7.70;;;;;;;;;;5000876;28;20068;-76
2023/01/19 08:33:51;;;;;;;16.10;7.38;;;;;;;;;;5005105;28;20057;-75
2023/01/19 08:36:17;;;;;;;15.63;7.13;;;;;;;;;;5007693;28;20030;-76
2023/01/19 08:38:46;;;;;;;14.40;8.20;;;;;;;;;;4997663;28;20113;-74
2023/01/19 08:41:12;;;;;;;11.45;7.68;;;;;;;;;;5009975;28;20057;-75
2023/01/19 08:43:38;;;;;;;7.88;5.00;;;;;;;;;;5002032;28;20026;-75
2023/01/19 08:46:05;;;;;;;12.55;6.72;;;;;;;;;;5003042;28;20065;-76
2023/01/19 08:48:31;;;;;;;13.05;6.78;;;;;;;;;;5008949;28;20109;-75
2023/01/19 08:50:58;;;;;;;13.43;6.90;;;;;;;;;;4996513;28;20112;-76
2023/01/19 08:53:24;;;;;;;8.88;5.65;;;;;;;;;;5008356;28;20020;-76
2023/01/19 08:55:54;;;;;;;9.20;5.22;;;;;;;;;;5017758;22;20294;-79
2023/01/19 08:58:20;;;;;;;10.43;5.32;;;;;;;;;;4994123;28;20030;-74
2023/01/19 09:00:47;;;;;;;7.22;4.80;;;;;;;;;;5010932;28;20018;-75
2023/01/19 09:03:13;;;;;;;8.55;4.88;;;;;;;;;;4997533;28;20080;-76
2023/01/19 09:05:39;;;;;;;6.97;4.03;;;;;;;;;;5006580;28;20034;-76
2023/01/19 09:08:10;;;;;;;10.02;4.28;;;;;;;;;;5005362;28;20377;-76
2023/01/19 09:10:36;;;;;;;9.00;5.10;;;;;;;;;;4998894;28;20113;-77
2023/01/19 09:13:07;;;;;;;11.68;4.78;;;;;;;;;;5009209;28;20031;-76
2023/01/19 09:15:34;;;;;;;10.30;5.03;;;;;;;;;;5001217;28;20559;-76
2023/01/19 09:18:10;;;;;;;7.70;4.95;;;;;;;;;;5003338;28;20277;-74
2023/01/19 09:20:37;;;;;;;11.32;4.95;;;;;;;;;;5009712;28;20037;-76
2023/01/19 09:23:03;;;;;;;8.20;4.03;;;;;;;;;;4997649;28;20033;-76
2023/01/19 09:25:30;;;;;;;8.48;3.95;;;;;;;;;;5007680;28;20039;-76
2023/01/19 09:27:56;;;;;;;6.78;3.42;;;;;;;;;;5005484;28;20022;-75
2023/01/19 09:30:22;;;;;;;4.00;2.78;;;;;;;;;;5001281;28;20014;-76
2023/01/19 09:32:48;;;;;;;8.95;3.55;;;;;;;;;;5010730;28;20373;-76
2023/01/19 09:35:14;;;;;;;5.03;3.25;;;;;;;;;;4998120;28;20034;-70
2023/01/19 09:37:40;;;;;;;7.13;4.15;;;;;;;;;;5003993;28;20026;-70
2023/01/19 09:40:09;;;;;;;23.42;11.80;;;;;;;;;;5004865;28;20036;-73
2023/01/19 09:42:45;;;;;;;13.23;7.88;;;;;;;;;;4996947;28;20026;-74
2023/01/19 09:45:15;;;;;;;11.45;6.15;;;;;;;;;;4982126;28;20120;-71
2023/01/19 09:47:41;;;;;;;20.52;11.40;;;;;;;;;;5004969;28;20160;-72
2023/01/19 09:50:20;;;;;;;9.55;5.68;;;;;;;;;;4993373;28;20444;-70
2023/01/19 09:52:49;;;;;;;6.90;3.40;;;;;;;;;;4997966;28;20045;-76
2023/01/19 09:55:22;;;;;;;5.88;3.33;;;;;;;;;;5007967;28;20026;-76
2023/01/19 09:57:48;;;;;;;5.22;3.45;;;;;;;;;;5001914;28;20037;-73
2023/01/19 10:00:17;;;;;;;5.95;3.20;;;;;;;;;;4999975;28;20038;-74
2023/01/19 10:02:50;;;;;;;8.10;3.67;;;;;;;;;;5004895;28;20281;-70
2023/01/19 10:05:16;;;;;;;7.03;3.60;;;;;;;;;;4998980;28;20030;-73
2023/01/19 10:07:42;;;;;;;7.60;3.72;;;;;;;;;;5002315;28;20025;-69
2023/01/19 10:10:24;;;;;;;7.75;3.88;;;;;;;;;;5001259;28;20114;-72
2023/01/19 10:12:50;;;;;;;;;;;;;;;;;;5009715;28;20036;-70
2023/01/19 10:15:16;;;;;;;7.00;3.28;;;;;;;;;;4994710;28;19910;-70
2023/01/19 10:17:51;;;;;;;6.40;3.53;;;;;;;;;;4994420;28;20432;-71
2023/01/19 10:20:25;;;;;;;5.57;3.30;;;;;;;;;;4994588;28;20033;-70
2023/01/19 10:22:51;;;;;;;4.03;2.40;;;;;;;;;;5009302;28;20253;-73
2023/01/19 10:25:19;;;;;;;4.28;2.92;;;;;;;;;;4991466;28;20091;-74
2023/01/19 10:27:46;;;;;;;7.00;3.03;;;;;;;;;;4991495;28;20454;-74
2023/01/19 10:30:30;;;;;;;5.78;3.25;;;;;;;;;;4991488;28;20389;-74
2023/01/19 10:32:56;;;;;;;8.48;3.35;;;;;;;;;;5006469;28;20061;-75
2023/01/19 10:35:23;;;;;;;7.68;3.55;;;;;;;;;;4998478;28;20018;-76
2023/01/19 10:37:55;;;;;;;7.25;3.70;;;;;;;;;;5003423;28;20030;-76
2023/01/19 10:40:39;;;;;;;4.97;3.08;;;;;;;;;;5006536;28;20116;-76
2023/01/19 10:43:24;;;;;;;6.22;3.90;;;;;;;;;;4996825;28;20061;-76
2023/01/19 10:45:50;;;;;;;7.90;3.50;;;;;;;;;;5005600;28;20398;-75
2023/01/19 10:48:16;;;;;;;4.93;3.50;;;;;;;;;;5007055;28;20029;-75
2023/01/19 10:50:42;;;;;;;8.00;3.55;;;;;;;;;;4997460;28;20030;-75
2023/01/19 10:53:19;;;;;;;5.28;3.75;;;;;;;;;;4982690;28;20026;-75
2023/01/19 10:55:45;;;;;;;5.53;3.75;;;;;;;;;;5006146;28;20117;-73
2023/01/19 10:58:28;;;;;;;5.25;3.50;;;;;;;;;;5005714;28;20080;-72
2023/01/19 11:00:54;;;;;;;5.15;3.60;;;;;;;;;;4997265;28;20034;-72
2023/01/19 11:03:31;;;;;;;7.72;3.42;;;;;;;;;;5008436;28;20098;-74
2023/01/19 11:06:15;;;;;;;5.97;3.65;;;;;;;;;;5001088;28;20033;-75
2023/01/19 11:08:41;;;;;;;8.48;4.28;;;;;;;;;;5009582;28;20022;-76
2023/01/19 11:11:08;;;;;;;6.95;4.10;;;;;;;;;;4981179;28;20025;-77
2023/01/19 11:13:41;;;;;;;12.85;4.47;;;;;;;;;;5004885;28;20027;-71
2023/01/19 11:16:07;;;;;;;9.73;4.60;;;;;;;;;;5003339;28;20025;-71
2023/01/19 11:18:35;;;;;;;8.52;3.60;;;;;;;;;;4994476;28;20133;-71
2023/01/19 11:21:08;;;;;;;9.98;6.03;;;;;;;;;;5006199;28;20030;-72
2023/01/19 11:23:42;;;;;;;9.35;4.35;;;;;;;;;;4998194;28;20036;-71
2023/01/19 11:26:15;;;;;;;7.72;3.40;;;;;;;;;;5000031;28;20427;-71
2023/01/19 11:28:53;;;;;;;7.72;3.95;;;;;;;;;;5007878;28;20050;-71
2023/01/19 11:31:29;;;;;;;8.18;4.18;;;;;;;;;;4982874;28;20095;-71
2023/01/19 11:33:59;;;;;;;6.28;3.38;;;;;;;;;;5001758;28;20026;-71
2023/01/19 11:36:28;;;;;;;6.03;3.30;;;;;;;;;;5006029;28;20092;-70
2023/01/19 11:38:56;;;;;;;6.78;3.25;;;;;;;;;;4993506;28;20038;-74
2023/01/19 11:41:25;;;;;;;8.40;4.30;;;;;;;;;;5006094;28;20542;-75
2023/01/19 11:43:52;;;;;;;7.90;4.38;;;;;;;;;;4999962;28;20034;-70
2023/01/19 11:46:19;;;;;;;11.50;4.82;;;;;;;;;;4998341;28;20392;-72
2023/01/19 11:49:00;;;;;;;19.17;9.82;;;;;;;;;;5009086;28;20018;-70
2023/01/19 11:51:29;;;;;;;10.80;6.13;;;;;;;;;;4999995;28;20025;-70
2023/01/19 11:53:55;;;;;;;8.68;4.75;;;;;;;;;;5003706;28;20066;-68
2023/01/19 11:56:23;;;;;;;8.30;4.28;;;;;;;;;;5006355;28;20380;-71
2023/01/19 11:58:49;;;;;;;11.15;5.15;;;;;;;;;;4994778;28;20388;-69
2023/01/19 12:01:32;;;;;;;10.13;5.78;;;;;;;;;;5005474;28;20022;-70
2023/01/19 12:04:04;;;;;;;7.38;3.95;;;;;;;;;;5005899;28;20173;-70
2023/01/19 12:06:30;;;;;;;;;;;;;;;;;;5000757;28;20027;-71
2023/01/19 12:08:58;;;;;;;8.27;3.33;;;;;;;;;;5011100;28;19905;-70
2023/01/19 12:11:30;;;;;;;4.47;3.30;;;;;;;;;;5000835;28;20022;-70
2023/01/19 12:13:56;;;;;;;6.10;2.80;;;;;;;;;;5004950;28;20049;-71
2023/01/19 12:16:24;;;;;;;5.32;3.15;;;;;;;;;;5009020;28;20373;-70
2023/01/19 12:18:56;;;;;;;10.35;4.97;;;;;;;;;;4998219;28;20030;-68
2023/01/19 12:21:22;;;;;;;15.82;7.20;;;;;;;;;;5009196;28;20030;-72
2023/01/19 12:23:48;;;;;;;9.75;3.95;;;;;;;;;;5003863;28;20476;-71
2023/01/19 12:26:21;;;;;;;5.90;2.90;;;;;;;;;;5002049;28;20030;-71
2023/01/19 12:28:49;;;;;;;7.93;3.60;;;;;;;;;;5011113;28;20026;-73
2023/01/19 12:31:19;;;;;;;5.15;2.83;;;;;;;;;;4999490;28;20026;-72
2023/01/19 12:33:45;;;;;;;4.75;3.28;;;;;;;;;;5005910;28;20022;-72
2023/01/19 12:36:26;;;;;;;13.77;5.82;;;;;;;;;;5006668;28;20459;-72
2023/01/19 12:38:52;;;;;;;4.72;2.88;;;;;;;;;;4997752;28;20076;-73
2023/01/19 12:41:18;;;;;;;7.90;3.47;;;;;;;;;;5007992;28;20117;-73
2023/01/19 12:43:44;;;;;;;9.00;4.10;;;;;;;;;;5001761;28;20260;-73
2023/01/19 12:46:19;;;;;;;6.47;3.30;;;;;;;;;;5002157;28;20057;-73
2023/01/19 12:48:46;;;;;;;5.47;3.53;;;;;;;;;;5010534;28;20024;-74
2023/01/19 12:51:25;;;;;;;7.50;3.53;;;;;;;;;;4998188;28;20022;-75
2023/01/19 12:53:56;;;;;;;9.38;4.22;;;;;;;;;;5003643;28;20023;-74
2023/01/19 12:56:49;;;;;;;4.97;3.30;;;;;;;;;;5008058;28;20037;-74
2023/01/19 12:59:24;;;;;;;14.18;4.90;;;;;;;;;;4995883;28;20380;-73
2023/01/19 13:02:08;;;;;;;9.18;3.42;;;;;;;;;;5005140;28;20112;-73
2023/01/19 13:04:34;;;;;;;8.50;4.18;;;;;;;;;;5008629;28;20036;-72
2023/01/19 13:07:04;;;;;;;11.48;6.40;;;;;;;;;;4996675;28;20057;-73
2023/01/19 13:09:30;;;;;;;7.35;4.10;;;;;;;;;;5006584;28;20028;-74
2023/01/19 13:12:14;;;;;;;12.43;6.68;;;;;;;;;;5003620;28;20101;-74
2023/01/19 13:14:42;;;;;;;8.13;4.18;;;;;;;;;;4997665;28;20030;-73
2023/01/19 13:17:26;;;;;;;8.38;4.95;;;;;;;;;;4979834;28;20022;-72
2023/01/19 13:19:54;;;;;;;10.63;5.22;;;;;;;;;;5004125;28;20057;-73
2023/01/19 13:22:39;;;;;;;15.48;7.32;;;;;;;;;;5007529;28;20499;-75
2023/01/19 13:25:11;;;;;;;10.23;5.45;;;;;;;;;;5012903;28;20034;-76
2023/01/19 13:27:37;;;;;;;8.60;4.55;;;;;;;;;;5011953;28;20117;-73
2023/01/19 13:30:10;;;;;;;7.57;4.32;;;;;;;;;;5013252;28;20041;-74
2023/01/19 13:32:36;;;;;;;5.45;3.80;;;;;;;;;;5010918;28;20026;-74
2023/01/19 13:35:04;;;;;;;5.63;4.22;;;;;;;;;;5011439;28;20030;-72
2023/01/19 13:37:48;;;;;;;7.45;4.20;;;;;;;;;;5012960;28;20029;-74
2023/01/19 13:40:24;;;;;;;6.72;3.78;;;;;;;;;;5013469;28;20199;-73
2023/01/19 13:42:52;;;;;;;9.00;4.82;;;;;;;;;;5013468;28;20026;-74
2023/01/19 13:45:26;;;;;;;16.92;7.80;;;;;;;;;;5013253;28;20119;-74
2023/01/19 13:47:53;;;;;;;6.60;4.10;;;;;;;;;;5013100;28;20025;-72
2023/01/19 13:50:20;;;;;;;5.90;3.50;;;;;;;;;;5013324;28;20052;-74
2023/01/19 13:52:47;;;;;;;8.15;4.38;;;;;;;;;;5013148;28;20101;-72
2023/01/19 13:55:14;;;;;;;9.70;4.28;;;;;;;;;;5011567;28;20022;-73
2023/01/19 13:57:41;;;;;;;6.63;3.58;;;;;;;;;;5011255;28;20065;-74
2023/01/19 14:00:13;;;;;;;9.95;4.82;;;;;;;;;;5013305;28;20080;-74
2023/01/19 14:02:45;;;;;;;16.67;8.25;;;;;;;;;;5013087;28;20029;-73
2023/01/19 14:05:31;;;;;;;27.40;11.77;;;;;;;;;;5013180;28;20026;-74
2023/01/19 14:08:12;;;;;;;8.50;4.03;;;;;;;;;;5012377;28;20033;-74
2023/01/19 14:10:53;;;;;;;7.97;4.15;;;;;;;;;;5012886;28;20025;-75
2023/01/19 14:13:19;;;;;;;;;;;;;;;;;;5013425;28;20160;-74
2023/01/19 14:15:46;;;;;;;7.85;4.10;;;;;;;;;;5012909;28;19971;-74
2023/01/19 14:18:18;;;;;;;7.93;3.85;;;;;;;;;;5012292;28;20034;-75
2023/01/19 14:21:03;;;;;;;7.13;4.30;;;;;;;;;;5011416;28;20225;-74
2023/01/19 14:23:48;;;;;;;11.68;4.60;;;;;;;;;;5012883;28;20030;-74
2023/01/19 14:26:32;;;;;;;6.38;3.42;;;;;;;;;;5012146;28;20022;-73
2023/01/19 14:29:06;;;;;;;6.97;4.32;;;;;;;;;;5012630;28;20026;-75
2023/01/19 14:31:32;;;;;;;9.80;4.53;;;;;;;;;;5012526;28;20026;-75
2023/01/19 14:33:58;;;;;;;8.68;4.90;;;;;;;;;;5012593;28;20042;-74
2023/01/19 14:36:39;;;;;;;10.77;5.40;;;;;;;;;;5012063;28;20344;-75
2023/01/19 14:39:06;;;;;;;7.25;4.40;;;;;;;;;;5011914;28;20041;-75
2023/01/19 14:41:32;;;;;;;8.55;5.30;;;;;;;;;;5011031;28;20117;-75
2023/01/19 14:43:58;;;;;;;7.78;4.47;;;;;;;;;;5012205;28;20436;-72
2023/01/19 14:46:25;;;;;;;8.93;5.43;;;;;;;;;;5012220;28;20459;-73
2023/01/19 14:48:57;;;;;;;8.38;5.13;;;;;;;;;;5012009;28;20033;-73
2023/01/19 14:51:23;;;;;;;7.68;4.85;;;;;;;;;;5010945;28;20071;-74